createdAt,value
2022-10-19T00:00:26.639Z,1016.10
2022-10-19T00:01:26.637Z,1016.09
2022-10-19T00:02:26.759Z,1016.09
2022-10-19T00:03:26.606Z,1016.10
2022-10-19T00:04:26.595Z,1016.09
2022-10-19T00:05:26.597Z,1016.08
2022-10-19T00:06:26.617Z,1016.10
2022-10-19T00:07:26.556Z,1016.12
2022-10-19T00:08:26.556Z,1016.03
2022-10-19T00:09:26.527Z,1015.97
2022-10-19T00:10:26.519Z,1016.03
2022-10-19T00:11:26.515Z,1015.98
2022-10-19T00:12:26.493Z,1016.04
2022-10-19T00:13:26.486Z,1015.95
2022-10-19T00:14:26.469Z,1015.99
2022-10-19T00:15:26.443Z,1016.01
2022-10-19T00:16:26.464Z,1016.01
2022-10-19T00:17:26.434Z,1016.02
2022-10-19T00:18:26.413Z,1015.99
2022-10-19T00:19:26.393Z,1016.03
2022-10-19T00:20:26.385Z,1016.03
2022-10-19T00:21:26.392Z,1016.02
2022-10-19T00:22:26.363Z,1015.98
2022-10-19T00:23:26.349Z,1015.96
2022-10-19T00:24:26.332Z,1015.99
2022-10-19T00:25:26.311Z,1016.08
2022-10-19T00:26:26.323Z,1016.00
2022-10-19T00:27:26.300Z,1015.98
2022-10-19T00:28:26.355Z,1015.97
2022-10-19T00:29:26.283Z,1016.04
2022-10-19T00:30:26.251Z,1016.03
2022-10-19T00:31:26.260Z,1016.02
2022-10-19T00:32:26.241Z,1015.98
2022-10-19T00:33:26.211Z,1016.02
2022-10-19T00:34:26.211Z,1016.04
2022-10-19T00:35:26.192Z,1015.97
2022-10-19T00:36:26.199Z,1016.02
2022-10-19T00:37:26.183Z,1016.01
2022-10-19T00:38:26.149Z,1015.98
2022-10-19T00:39:26.151Z,1016.00
2022-10-19T00:40:26.129Z,1016.04
2022-10-19T00:41:26.128Z,1016.00
2022-10-19T00:42:26.101Z,1016.01
2022-10-19T00:43:26.081Z,1015.97
2022-10-19T00:44:26.085Z,1016.00
2022-10-19T00:45:26.057Z,1015.97
2022-10-19T00:46:26.069Z,1015.95
2022-10-19T00:47:26.073Z,1016.01
2022-10-19T00:48:26.035Z,1015.93
2022-10-19T00:49:25.998Z,1016.05
2022-10-19T00:50:26.006Z,1016.00
2022-10-19T00:51:25.996Z,1016.05
2022-10-19T00:52:25.985Z,1016.00
2022-10-19T00:53:25.946Z,1016.06
2022-10-19T00:54:25.955Z,1016.05
2022-10-19T00:55:25.928Z,1016.04
2022-10-19T00:56:25.926Z,1016.04
2022-10-19T00:57:25.958Z,1016.06
2022-10-19T00:58:25.904Z,1016.04
2022-10-19T00:59:25.879Z,1016.00
2022-10-19T01:00:25.888Z,1016.08
2022-10-19T01:01:25.892Z,1016.04
2022-10-19T01:02:25.852Z,1016.07
2022-10-19T01:03:25.823Z,1016.03
2022-10-19T01:04:25.815Z,1016.00
2022-10-19T01:05:25.794Z,1016.02
2022-10-19T01:06:25.804Z,1016.03
2022-10-19T01:07:25.810Z,1016.00
2022-10-19T01:08:25.773Z,1015.95
2022-10-19T01:09:25.752Z,1015.98
2022-10-19T01:10:25.743Z,1016.03
2022-10-19T01:11:25.742Z,1016.00
2022-10-19T01:12:25.722Z,1016.03
2022-10-19T01:13:25.692Z,1016.00
2022-10-19T01:14:25.692Z,1016.02
2022-10-19T01:15:25.722Z,1016.06
2022-10-19T01:16:25.671Z,1016.03
2022-10-19T01:17:25.666Z,1016.00
2022-10-19T01:18:25.633Z,1016.06
2022-10-19T01:19:25.620Z,1015.99
2022-10-19T01:20:25.620Z,1016.02
2022-10-19T01:21:25.683Z,1016.05
2022-10-19T01:22:25.590Z,1015.97
2022-10-19T01:23:25.570Z,1015.95
2022-10-19T01:24:25.561Z,1015.93
2022-10-19T01:25:25.553Z,1015.91
2022-10-19T01:26:25.540Z,1015.96
2022-10-19T01:27:25.567Z,1015.94
2022-10-19T01:28:25.539Z,1015.92
2022-10-19T01:29:25.488Z,1015.88
2022-10-19T01:30:25.478Z,1015.85
2022-10-19T01:31:25.485Z,1015.86
2022-10-19T01:32:25.458Z,1015.85
2022-10-19T01:33:25.441Z,1015.82
2022-10-19T01:34:25.438Z,1015.84
2022-10-19T01:35:25.407Z,1015.80
2022-10-19T01:36:25.415Z,1015.82
2022-10-19T01:37:25.398Z,1015.80
2022-10-19T01:38:25.379Z,1015.80
2022-10-19T01:39:25.357Z,1015.76
2022-10-19T01:40:25.350Z,1015.78
2022-10-19T01:41:25.358Z,1015.84
2022-10-19T01:42:25.325Z,1015.76
2022-10-19T01:43:25.295Z,1015.76
2022-10-19T01:44:25.305Z,1015.75
2022-10-19T01:45:25.274Z,1015.76
2022-10-19T01:46:25.291Z,1015.67
2022-10-19T01:47:25.304Z,1015.78
2022-10-19T01:48:25.242Z,1015.68
2022-10-19T01:49:25.224Z,1015.68
2022-10-19T01:50:25.215Z,1015.69
2022-10-19T01:51:25.223Z,1015.69
2022-10-19T01:52:25.191Z,1015.62
2022-10-19T01:53:25.174Z,1015.60
2022-10-19T01:54:25.172Z,1015.59
2022-10-19T01:55:25.153Z,1015.64
2022-10-19T01:56:25.173Z,1015.56
2022-10-19T01:57:25.132Z,1015.56
2022-10-19T01:58:25.106Z,1015.62
2022-10-19T01:59:25.102Z,1015.62
2022-10-19T02:00:25.084Z,1015.60
2022-10-19T02:01:25.082Z,1015.61
2022-10-19T02:02:25.079Z,1015.63
2022-10-19T02:03:25.052Z,1015.62
2022-10-19T02:04:25.032Z,1015.60
2022-10-19T02:05:25.031Z,1015.62
2022-10-19T02:06:25.022Z,1015.60
2022-10-19T02:07:24.991Z,1015.62
2022-10-19T02:08:25.012Z,1015.64
2022-10-19T02:09:24.975Z,1015.64
2022-10-19T02:10:24.961Z,1015.69
2022-10-19T02:11:24.942Z,1015.65
2022-10-19T02:12:24.950Z,1015.64
2022-10-19T02:13:24.948Z,1015.64
2022-10-19T02:14:24.939Z,1015.66
2022-10-19T02:15:24.899Z,1015.64
2022-10-19T02:16:24.890Z,1015.63
2022-10-19T02:17:24.861Z,1015.60
2022-10-19T02:18:24.890Z,1015.60
2022-10-19T02:19:24.924Z,1015.61
2022-10-19T02:20:24.849Z,1015.56
2022-10-19T02:21:24.823Z,1015.59
2022-10-19T02:22:24.808Z,1015.56
2022-10-19T02:23:24.799Z,1015.52
2022-10-19T02:24:24.807Z,1015.54
2022-10-19T02:25:24.827Z,1015.55
2022-10-19T02:26:24.774Z,1015.52
2022-10-19T02:27:24.738Z,1015.56
2022-10-19T02:29:24.725Z,1015.56
2022-10-19T02:30:24.706Z,1015.55
2022-10-19T02:31:24.697Z,1015.52
2022-10-19T02:32:24.674Z,1015.51
2022-10-19T02:33:24.666Z,1015.55
2022-10-19T02:34:24.646Z,1015.49
2022-10-19T02:35:24.648Z,1015.48
2022-10-19T02:36:24.620Z,1015.50
2022-10-19T02:37:25.557Z,1015.46
2022-10-19T02:38:24.595Z,1015.47
2022-10-19T02:39:24.574Z,1015.48
2022-10-19T02:40:24.572Z,1015.52
2022-10-19T02:41:24.563Z,1015.46
2022-10-19T02:42:24.548Z,1015.45
2022-10-19T02:43:24.533Z,1015.48
2022-10-19T02:44:24.513Z,1015.44
2022-10-19T02:45:24.512Z,1015.50
2022-10-19T02:46:24.493Z,1015.45
2022-10-19T02:47:24.492Z,1015.46
2022-10-19T02:48:24.463Z,1015.43
2022-10-19T02:49:24.504Z,1015.41
2022-10-19T02:50:24.433Z,1015.47
2022-10-19T02:51:24.432Z,1015.43
2022-10-19T02:52:24.411Z,1015.49
2022-10-19T02:53:24.416Z,1015.39
2022-10-19T02:54:24.415Z,1015.39
2022-10-19T02:55:24.399Z,1015.40
2022-10-19T02:56:24.360Z,1015.42
2022-10-19T02:57:24.360Z,1015.47
2022-10-19T02:58:24.335Z,1015.38
2022-10-19T02:59:24.339Z,1015.41
2022-10-19T03:00:24.310Z,1015.41
2022-10-19T03:01:24.310Z,1015.36
2022-10-19T03:02:24.294Z,1015.39
2022-10-19T03:03:24.271Z,1015.41
2022-10-19T03:04:24.264Z,1015.38
2022-10-19T03:05:24.260Z,1015.43
2022-10-19T03:06:24.233Z,1015.40
2022-10-19T03:07:24.258Z,1015.40
2022-10-19T03:08:24.208Z,1015.39
2022-10-19T03:09:24.200Z,1015.41
2022-10-19T03:10:24.188Z,1015.41
2022-10-19T03:11:24.177Z,1015.39
2022-10-19T03:12:24.148Z,1015.44
2022-10-19T03:13:24.158Z,1015.34
2022-10-19T03:14:24.139Z,1015.41
2022-10-19T03:15:24.116Z,1015.39
2022-10-19T03:16:24.101Z,1015.37
2022-10-19T03:17:24.092Z,1015.35
2022-10-19T03:18:24.076Z,1015.44
2022-10-19T03:19:24.078Z,1015.44
2022-10-19T03:20:24.059Z,1015.40
2022-10-19T03:21:24.040Z,1015.44
2022-10-19T03:22:24.045Z,1015.42
2022-10-19T03:23:24.019Z,1015.41
2022-10-19T03:24:24.004Z,1015.37
2022-10-19T03:25:24.006Z,1015.33
2022-10-19T03:26:23.986Z,1015.38
2022-10-19T03:27:23.975Z,1015.30
2022-10-19T03:28:23.974Z,1015.36
2022-10-19T03:29:23.936Z,1015.31
2022-10-19T03:30:23.923Z,1015.31
2022-10-19T03:31:23.932Z,1015.30
2022-10-19T03:32:23.893Z,1015.38
2022-10-19T03:33:26.900Z,1015.32
2022-10-19T03:34:23.872Z,1015.34
2022-10-19T03:35:23.864Z,1015.38
2022-10-19T03:36:23.851Z,1015.37
2022-10-19T03:37:23.852Z,1015.38
2022-10-19T03:38:23.822Z,1015.38
2022-10-19T03:39:23.802Z,1015.38
2022-10-19T03:40:23.791Z,1015.35
2022-10-19T03:41:23.782Z,1015.40
2022-10-19T03:42:23.782Z,1015.38
2022-10-19T03:43:23.775Z,1015.38
2022-10-19T03:44:23.741Z,1015.32
2022-10-19T03:45:23.721Z,1015.39
2022-10-19T03:46:23.732Z,1015.40
2022-10-19T03:47:23.709Z,1015.33
2022-10-19T03:48:23.696Z,1015.36
2022-10-19T03:49:23.699Z,1015.32
2022-10-19T03:50:23.660Z,1015.35
2022-10-19T03:51:23.650Z,1015.31
2022-10-19T03:52:23.639Z,1015.44
2022-10-19T03:53:23.619Z,1015.43
2022-10-19T03:54:26.532Z,1015.35
2022-10-19T03:55:23.609Z,1015.40
2022-10-19T03:56:23.598Z,1015.33
2022-10-19T03:57:23.570Z,1015.39
2022-10-19T03:58:23.558Z,1015.44
2022-10-19T03:59:23.557Z,1015.41
2022-10-19T04:00:23.557Z,1015.44
2022-10-19T04:01:23.581Z,1015.42
2022-10-19T04:02:23.507Z,1015.51
2022-10-19T04:03:23.527Z,1015.55
2022-10-19T04:04:23.488Z,1015.50
2022-10-19T04:05:23.470Z,1015.53
2022-10-19T04:06:23.475Z,1015.54
2022-10-19T04:07:23.437Z,1015.60
2022-10-19T04:08:23.439Z,1015.59
2022-10-19T04:09:23.437Z,1015.63
2022-10-19T04:10:23.406Z,1015.55
2022-10-19T04:11:23.388Z,1015.56
2022-10-19T04:12:23.414Z,1015.56
2022-10-19T04:13:23.372Z,1015.52
2022-10-19T04:14:32.174Z,1015.61
2022-10-19T04:15:24.335Z,1015.47
2022-10-19T04:16:23.331Z,1015.58
2022-10-19T04:17:23.311Z,1015.48
2022-10-19T04:18:23.348Z,1015.48
2022-10-19T04:19:23.298Z,1015.52
2022-10-19T04:20:23.280Z,1015.42
2022-10-19T04:21:23.332Z,1015.54
2022-10-19T04:22:23.266Z,1015.55
2022-10-19T04:23:23.245Z,1015.49
2022-10-19T04:24:23.225Z,1015.51
2022-10-19T04:25:23.202Z,1015.48
2022-10-19T04:26:23.212Z,1015.41
2022-10-19T04:27:23.190Z,1015.34
2022-10-19T04:28:23.201Z,1015.37
2022-10-19T04:29:25.081Z,1015.39
2022-10-19T04:30:23.152Z,1015.38
2022-10-19T04:31:23.140Z,1015.36
2022-10-19T04:32:23.136Z,1015.41
2022-10-19T04:33:23.130Z,1015.42
2022-10-19T04:34:23.150Z,1015.32
2022-10-19T04:35:23.079Z,1015.33
2022-10-19T04:36:23.080Z,1015.42
2022-10-19T04:37:23.049Z,1015.38
2022-10-19T04:38:23.039Z,1015.35
2022-10-19T04:39:23.039Z,1015.37
2022-10-19T04:40:23.039Z,1015.32
2022-10-19T04:41:23.008Z,1015.35
2022-10-19T04:42:23.009Z,1015.36
2022-10-19T04:43:22.968Z,1015.37
2022-10-19T04:45:22.967Z,1015.40
2022-10-19T04:46:22.938Z,1015.37
2022-10-19T04:47:22.930Z,1015.41
2022-10-19T04:48:22.907Z,1015.38
2022-10-19T04:49:22.904Z,1015.33
2022-10-19T04:50:22.900Z,1015.30
2022-10-19T04:51:22.896Z,1015.34
2022-10-19T04:52:22.868Z,1015.32
2022-10-19T04:54:22.846Z,1015.25
2022-10-19T04:55:22.827Z,1015.25
2022-10-19T04:56:22.829Z,1015.26
2022-10-19T04:57:22.806Z,1015.34
2022-10-19T04:58:22.789Z,1015.34
2022-10-19T04:59:22.764Z,1015.31
2022-10-19T05:00:22.767Z,1015.28
2022-10-19T05:01:22.764Z,1015.28
2022-10-19T05:02:22.754Z,1015.28
2022-10-19T05:03:22.718Z,1015.27
2022-10-19T05:04:22.713Z,1015.25
2022-10-19T05:05:22.694Z,1015.23
2022-10-19T05:06:22.685Z,1015.23
2022-10-19T05:07:22.674Z,1015.21
2022-10-19T05:08:22.663Z,1015.14
2022-10-19T05:09:22.634Z,1015.19
2022-10-19T05:10:22.633Z,1015.22
2022-10-19T05:11:22.611Z,1015.19
2022-10-19T05:12:22.612Z,1015.24
2022-10-19T05:13:22.602Z,1015.15
2022-10-19T05:14:22.615Z,1015.17
2022-10-19T05:15:22.581Z,1015.17
2022-10-19T05:16:22.560Z,1015.12
2022-10-19T05:17:22.553Z,1015.09
2022-10-19T05:18:22.534Z,1015.13
2022-10-19T05:19:22.519Z,1015.11
2022-10-19T05:20:22.500Z,1015.09
2022-10-19T05:21:22.491Z,1015.05
2022-10-19T05:22:22.480Z,1015.08
2022-10-19T05:23:22.576Z,1015.10
2022-10-19T05:24:22.476Z,1015.09
2022-10-19T05:25:22.429Z,1015.09
2022-10-19T05:26:22.432Z,1015.13
2022-10-19T05:27:22.423Z,1015.15
2022-10-19T05:28:22.419Z,1015.14
2022-10-19T05:29:22.398Z,1015.18
2022-10-19T05:30:22.378Z,1015.12
2022-10-19T05:31:22.373Z,1015.16
2022-10-19T05:32:22.405Z,1015.18
2022-10-19T05:33:22.335Z,1015.20
2022-10-19T05:34:22.341Z,1015.26
2022-10-19T05:35:22.699Z,1015.16
2022-10-19T05:36:22.296Z,1015.13
2022-10-19T05:37:22.299Z,1015.06
2022-10-19T05:38:22.287Z,1015.12
2022-10-19T05:39:22.256Z,1015.12
2022-10-19T05:40:22.245Z,1015.12
2022-10-19T05:41:22.226Z,1015.06
2022-10-19T05:42:22.237Z,1015.09
2022-10-19T05:43:22.208Z,1015.10
2022-10-19T05:44:22.198Z,1015.06
2022-10-19T05:45:22.176Z,1015.01
2022-10-19T05:46:22.168Z,1015.00
2022-10-19T05:47:22.164Z,1015.04
2022-10-19T05:48:22.154Z,1014.96
2022-10-19T05:49:22.139Z,1015.02
2022-10-19T05:50:22.135Z,1015.00
2022-10-19T05:51:22.184Z,1014.99
2022-10-19T05:52:22.107Z,1015.04
2022-10-19T05:53:22.074Z,1015.07
2022-10-19T05:54:23.845Z,1015.03
2022-10-19T05:55:22.043Z,1015.04
2022-10-19T05:56:22.042Z,1014.99
2022-10-19T05:57:22.043Z,1015.01
2022-10-19T05:58:22.021Z,1015.03
2022-10-19T05:59:22.002Z,1015.09
2022-10-19T06:00:21.993Z,1015.05
2022-10-19T06:01:21.971Z,1015.15
2022-10-19T06:02:21.981Z,1015.08
2022-10-19T06:03:21.942Z,1015.13
2022-10-19T06:04:21.963Z,1015.12
2022-10-19T06:05:21.918Z,1015.03
2022-10-19T06:06:21.912Z,1015.12
2022-10-19T06:07:21.906Z,1015.09
2022-10-19T06:08:21.892Z,1015.16
2022-10-19T06:09:21.862Z,1015.11
2022-10-19T06:10:21.860Z,1015.14
2022-10-19T06:11:21.841Z,1015.10
2022-10-19T06:12:24.991Z,1015.16
2022-10-19T06:13:21.809Z,1015.19
2022-10-19T06:14:21.825Z,1015.15
2022-10-19T06:15:21.797Z,1015.18
2022-10-19T06:16:21.788Z,1015.14
2022-10-19T06:17:21.789Z,1015.21
2022-10-19T06:18:21.756Z,1015.25
2022-10-19T06:19:21.748Z,1015.16
2022-10-19T06:20:21.741Z,1015.19
2022-10-19T06:21:21.718Z,1015.24
2022-10-19T06:22:21.718Z,1015.21
2022-10-19T06:23:21.697Z,1015.23
2022-10-19T06:24:21.677Z,1015.22
2022-10-19T06:25:21.657Z,1015.15
2022-10-19T06:26:21.656Z,1015.25
2022-10-19T06:27:21.691Z,1015.24
2022-10-19T06:28:21.617Z,1015.26
2022-10-19T06:29:21.628Z,1015.24
2022-10-19T06:30:21.706Z,1015.19
2022-10-19T06:31:21.574Z,1015.21
2022-10-19T06:32:21.569Z,1015.17
2022-10-19T06:33:21.588Z,1015.12
2022-10-19T06:34:21.642Z,1015.15
2022-10-19T06:35:21.542Z,1015.18
2022-10-19T06:36:21.517Z,1015.18
2022-10-19T06:37:21.527Z,1015.21
2022-10-19T06:38:21.497Z,1015.21
2022-10-19T06:39:21.497Z,1015.18
2022-10-19T06:40:21.500Z,1015.20
2022-10-19T06:41:21.464Z,1015.18
2022-10-19T06:42:21.452Z,1015.21
2022-10-19T06:43:21.434Z,1015.18
2022-10-19T06:44:21.422Z,1015.23
2022-10-19T06:45:21.476Z,1015.20
2022-10-19T06:46:21.393Z,1015.24
2022-10-19T06:47:21.376Z,1015.22
2022-10-19T06:48:21.375Z,1015.23
2022-10-19T06:49:21.351Z,1015.25
2022-10-19T06:50:21.391Z,1015.21
2022-10-19T06:51:21.330Z,1015.23
2022-10-19T06:52:21.320Z,1015.23
2022-10-19T06:53:21.311Z,1015.19
2022-10-19T06:54:21.301Z,1015.18
2022-10-19T06:55:21.280Z,1015.24
2022-10-19T06:56:21.293Z,1015.20
2022-10-19T06:57:21.250Z,1015.19
2022-10-19T06:58:21.241Z,1015.20
2022-10-19T06:59:21.248Z,1015.19
2022-10-19T07:00:21.213Z,1015.18
2022-10-19T07:01:21.241Z,1015.22
2022-10-19T07:02:21.218Z,1015.19
2022-10-19T07:03:21.180Z,1015.15
2022-10-19T07:04:21.181Z,1015.15
2022-10-19T07:05:21.138Z,1015.18
2022-10-19T07:06:21.146Z,1015.19
2022-10-19T07:07:21.118Z,1015.19
2022-10-19T07:08:21.226Z,1015.20
2022-10-19T07:09:21.097Z,1015.14
2022-10-19T07:10:21.088Z,1015.21
2022-10-19T07:11:21.070Z,1015.24
2022-10-19T07:12:21.048Z,1015.27
2022-10-19T07:13:21.039Z,1015.26
2022-10-19T07:14:21.046Z,1015.25
2022-10-19T07:15:21.022Z,1015.26
2022-10-19T07:16:21.733Z,1015.27
2022-10-19T07:17:20.985Z,1015.25
2022-10-19T07:18:20.996Z,1015.22
2022-10-19T07:19:20.965Z,1015.21
2022-10-19T07:20:21.004Z,1015.33
2022-10-19T07:21:20.938Z,1015.23
2022-10-19T07:22:25.766Z,1015.22
2022-10-19T07:23:21.906Z,1015.28
2022-10-19T07:24:20.913Z,1015.27
2022-10-19T07:25:20.885Z,1015.27
2022-10-19T07:26:20.893Z,1015.23
2022-10-19T07:27:20.854Z,1015.30
2022-10-19T07:28:20.853Z,1015.28
2022-10-19T07:29:20.846Z,1015.23
2022-10-19T07:30:20.823Z,1015.25
2022-10-19T07:31:20.810Z,1015.26
2022-10-19T07:32:20.831Z,1015.23
2022-10-19T07:33:20.784Z,1015.22
2022-10-19T07:34:23.153Z,1015.27
2022-10-19T07:35:20.781Z,1015.26
2022-10-19T07:36:20.761Z,1015.25
2022-10-19T07:37:20.731Z,1015.20
2022-10-19T07:38:20.752Z,1015.26
2022-10-19T07:39:20.700Z,1015.32
2022-10-19T07:40:20.690Z,1015.27
2022-10-19T07:41:20.702Z,1015.27
2022-10-19T07:43:20.660Z,1015.18
2022-10-19T07:44:20.661Z,1015.24
2022-10-19T07:45:20.619Z,1015.22
2022-10-19T07:46:20.620Z,1015.26
2022-10-19T07:47:20.614Z,1015.25
2022-10-19T07:48:20.590Z,1015.27
2022-10-19T07:49:20.573Z,1015.27
2022-10-19T07:50:20.583Z,1015.27
2022-10-19T07:51:20.621Z,1015.31
2022-10-19T07:52:20.547Z,1015.28
2022-10-19T07:53:20.518Z,1015.29
2022-10-19T07:54:20.507Z,1015.35
2022-10-19T07:55:20.517Z,1015.36
2022-10-19T07:56:20.506Z,1015.37
2022-10-19T07:57:20.477Z,1015.40
2022-10-19T07:58:20.476Z,1015.33
2022-10-19T07:59:20.455Z,1015.40
2022-10-19T08:00:20.439Z,1015.33
2022-10-19T08:01:20.436Z,1015.34
2022-10-19T08:02:20.570Z,1015.31
2022-10-19T08:05:21.397Z,1015.37
2022-10-19T08:06:20.387Z,1015.41
2022-10-19T08:07:20.347Z,1015.41
2022-10-19T08:08:20.332Z,1015.49
2022-10-19T08:09:47.357Z,1015.43
2022-10-19T08:10:21.318Z,1015.46
2022-10-19T08:11:20.284Z,1015.51
2022-10-19T08:12:20.297Z,1015.46
2022-10-19T08:13:20.255Z,1015.53
2022-10-19T08:14:20.265Z,1015.43
2022-10-19T08:15:20.232Z,1015.42
2022-10-19T08:16:20.231Z,1015.42
2022-10-19T08:17:20.232Z,1015.41
2022-10-19T08:18:20.213Z,1015.42
2022-10-19T08:19:20.184Z,1015.40
2022-10-19T08:20:20.183Z,1015.40
2022-10-19T08:21:20.153Z,1015.36
2022-10-19T08:22:20.152Z,1015.35
2022-10-19T08:23:20.141Z,1015.39
2022-10-19T08:24:20.131Z,1015.36
2022-10-19T08:25:20.109Z,1015.35
2022-10-19T08:26:20.099Z,1015.38
2022-10-19T08:27:20.089Z,1015.40
2022-10-19T08:28:20.084Z,1015.42
2022-10-19T08:29:20.059Z,1015.44
2022-10-19T08:30:20.053Z,1015.47
2022-10-19T08:31:20.033Z,1015.49
2022-10-19T08:32:20.017Z,1015.53
2022-10-19T08:33:20.012Z,1015.37
2022-10-19T08:34:20.027Z,1015.29
2022-10-19T08:35:19.976Z,1015.32
2022-10-19T08:36:19.983Z,1015.38
2022-10-19T08:37:26.384Z,1015.41
2022-10-19T08:38:20.937Z,1015.39
2022-10-19T08:39:19.954Z,1015.37
2022-10-19T08:40:19.935Z,1015.40
2022-10-19T08:41:19.916Z,1015.42
2022-10-19T08:42:19.896Z,1015.43
2022-10-19T08:43:19.879Z,1015.46
2022-10-19T08:44:19.866Z,1015.37
2022-10-19T08:45:19.860Z,1015.42
2022-10-19T08:46:19.852Z,1015.43
2022-10-19T08:47:23.245Z,1015.39
2022-10-19T08:48:19.814Z,1015.38
2022-10-19T08:49:19.809Z,1015.45
2022-10-19T08:50:19.803Z,1015.37
2022-10-19T08:51:19.782Z,1015.34
2022-10-19T08:52:19.764Z,1015.31
2022-10-19T08:53:19.747Z,1015.31
2022-10-19T08:54:19.734Z,1015.33
2022-10-19T08:55:20.696Z,1015.25
2022-10-19T08:56:38.960Z,1015.33
2022-10-19T08:57:20.696Z,1015.31
2022-10-19T08:58:19.698Z,1015.26
2022-10-19T08:59:19.663Z,1015.16
2022-10-19T09:00:19.653Z,1015.17
2022-10-19T09:01:19.645Z,1015.21
2022-10-19T09:02:19.653Z,1015.20
2022-10-19T09:03:27.189Z,1015.11
2022-10-19T09:04:20.602Z,1015.22
2022-10-19T09:05:19.591Z,1015.17
2022-10-19T09:06:19.573Z,1015.18
2022-10-19T09:07:19.584Z,1015.18
2022-10-19T09:08:19.563Z,1015.10
2022-10-19T09:09:19.543Z,1015.19
2022-10-19T09:10:19.612Z,1015.07
2022-10-19T09:11:19.512Z,1015.11
2022-10-19T09:12:19.501Z,1015.06
2022-10-19T09:13:19.526Z,1015.05
2022-10-19T09:14:19.482Z,1015.05
2022-10-19T09:15:19.480Z,1015.04
2022-10-19T09:16:19.449Z,1015.19
2022-10-19T09:17:19.435Z,1014.94
2022-10-19T09:18:19.422Z,1014.98
2022-10-19T09:19:19.430Z,1015.07
2022-10-19T09:20:19.523Z,1015.05
2022-10-19T09:21:19.392Z,1014.98
2022-10-19T09:22:19.374Z,1015.01
2022-10-19T09:23:19.411Z,1014.94
2022-10-19T09:24:19.349Z,1014.80
2022-10-19T09:25:19.380Z,1014.85
2022-10-19T09:26:19.310Z,1014.83
2022-10-19T09:27:19.319Z,1014.74
2022-10-19T09:28:19.289Z,1014.81
2022-10-19T09:29:19.284Z,1014.78
2022-10-19T09:30:19.359Z,1014.82
2022-10-19T09:31:19.255Z,1014.83
2022-10-19T09:32:19.239Z,1014.69
2022-10-19T09:33:19.226Z,1014.72
2022-10-19T09:34:19.218Z,1014.67
2022-10-19T09:35:19.200Z,1014.67
2022-10-19T09:36:22.756Z,1014.60
2022-10-19T09:37:25.714Z,1014.72
2022-10-19T09:38:20.156Z,1014.64
2022-10-19T09:39:19.157Z,1014.64
2022-10-19T09:40:19.178Z,1014.61
2022-10-19T09:41:19.127Z,1014.62
2022-10-19T09:42:19.119Z,1014.52
2022-10-19T09:43:19.101Z,1014.60
2022-10-19T09:44:19.089Z,1014.58
2022-10-19T09:45:19.075Z,1014.54
2022-10-19T09:46:20.469Z,1014.48
2022-10-19T09:47:19.069Z,1014.49
2022-10-19T09:48:19.036Z,1014.48
2022-10-19T09:49:19.015Z,1014.45
2022-10-19T09:50:19.007Z,1014.47
2022-10-19T09:51:18.994Z,1014.41
2022-10-19T09:52:18.976Z,1014.48
2022-10-19T09:53:18.995Z,1014.50
2022-10-19T09:54:18.957Z,1014.38
2022-10-19T09:55:18.935Z,1014.41
2022-10-19T09:56:18.927Z,1014.45
2022-10-19T09:57:18.926Z,1014.47
2022-10-19T09:58:18.907Z,1014.49
2022-10-19T09:59:18.915Z,1014.48
2022-10-19T10:00:18.873Z,1014.42
2022-10-19T10:01:18.869Z,1014.46
2022-10-19T10:02:18.853Z,1014.48
2022-10-19T10:03:18.833Z,1014.43
2022-10-19T10:04:18.833Z,1014.37
2022-10-19T10:05:18.837Z,1014.35
2022-10-19T10:06:18.883Z,1014.28
2022-10-19T10:07:18.864Z,1014.37
2022-10-19T10:08:18.867Z,1014.40
2022-10-19T10:09:18.852Z,1014.36
2022-10-19T10:10:18.823Z,1014.24
2022-10-19T10:11:18.763Z,1014.19
2022-10-19T10:12:18.722Z,1014.27
2022-10-19T10:13:18.708Z,1014.26
2022-10-19T10:14:18.701Z,1014.21
2022-10-19T10:15:18.685Z,1014.22
2022-10-19T10:16:18.680Z,1014.16
2022-10-19T10:17:18.682Z,1014.20
2022-10-19T10:18:18.641Z,1014.23
2022-10-19T10:19:18.642Z,1014.21
2022-10-19T10:20:18.623Z,1014.22
2022-10-19T10:21:20.558Z,1014.17
2022-10-19T10:22:19.622Z,1014.29
2022-10-19T10:23:18.590Z,1014.28
2022-10-19T10:24:18.575Z,1014.34
2022-10-19T10:25:18.564Z,1014.24
2022-10-19T10:26:18.533Z,1014.25
2022-10-19T10:27:18.523Z,1014.22
2022-10-19T10:28:18.538Z,1014.19
2022-10-19T10:29:18.511Z,1014.20
2022-10-19T10:30:18.483Z,1014.21
2022-10-19T10:31:18.478Z,1014.16
2022-10-19T10:32:18.465Z,1014.14
2022-10-19T10:33:27.051Z,1014.12
2022-10-19T10:34:28.630Z,1014.08
2022-10-19T10:35:19.409Z,1014.17
2022-10-19T10:36:18.408Z,1014.11
2022-10-19T10:37:18.401Z,1014.15
2022-10-19T10:38:18.388Z,1014.11
2022-10-19T10:39:18.363Z,1014.13
2022-10-19T10:40:21.304Z,1014.08
2022-10-19T10:41:19.348Z,1014.12
2022-10-19T10:42:18.318Z,1014.05
2022-10-19T10:43:18.326Z,1014.08
2022-10-19T10:44:18.299Z,1013.97
2022-10-19T10:45:18.318Z,1014.00
2022-10-19T10:46:18.281Z,1014.05
2022-10-19T10:47:18.258Z,1014.00
2022-10-19T10:48:18.286Z,1014.03
2022-10-19T10:49:18.247Z,1014.01
2022-10-19T10:50:18.229Z,1013.97
2022-10-19T10:51:18.228Z,1014.01
2022-10-19T10:52:18.344Z,1014.02
2022-10-19T10:53:18.186Z,1014.06
2022-10-19T10:54:18.173Z,1014.00
2022-10-19T10:55:18.170Z,1014.03
2022-10-19T10:56:18.138Z,1014.01
2022-10-19T10:57:18.181Z,1014.10
2022-10-19T10:58:18.850Z,1013.99
2022-10-19T10:59:18.107Z,1014.02
2022-10-19T11:00:18.098Z,1013.99
2022-10-19T11:01:18.124Z,1014.05
2022-10-19T11:02:18.148Z,1014.00
2022-10-19T11:03:18.056Z,1014.02
2022-10-19T11:04:18.058Z,1013.92
2022-10-19T11:05:18.026Z,1013.89
2022-10-19T11:06:18.089Z,1013.91
2022-10-19T11:07:18.009Z,1013.93
2022-10-19T11:08:18.017Z,1013.89
2022-10-19T11:09:17.986Z,1013.83
2022-10-19T11:10:17.967Z,1013.79
2022-10-19T11:11:17.946Z,1013.87
2022-10-19T11:12:17.965Z,1013.87
2022-10-19T11:13:17.927Z,1013.83
2022-10-19T11:14:17.964Z,1013.76
2022-10-19T11:15:17.975Z,1013.86
2022-10-19T11:16:17.977Z,1013.86
2022-10-19T11:17:17.884Z,1013.84
2022-10-19T11:18:17.866Z,1013.80
2022-10-19T11:19:17.848Z,1013.83
2022-10-19T11:20:17.864Z,1013.76
2022-10-19T11:21:17.827Z,1013.73
2022-10-19T11:22:17.826Z,1013.68
2022-10-19T11:23:17.796Z,1013.73
2022-10-19T11:24:17.833Z,1013.70
2022-10-19T11:25:17.782Z,1013.73
2022-10-19T11:26:17.787Z,1013.62
2022-10-19T11:27:17.754Z,1013.70
2022-10-19T11:28:17.734Z,1013.70
2022-10-19T11:29:17.723Z,1013.68
2022-10-19T11:30:17.713Z,1013.70
2022-10-19T11:31:17.703Z,1013.71
2022-10-19T11:32:17.695Z,1013.64
2022-10-19T11:33:17.664Z,1013.66
2022-10-19T11:34:18.623Z,1013.67
2022-10-19T11:35:17.644Z,1013.64
2022-10-19T11:36:17.634Z,1013.64
2022-10-19T11:37:17.635Z,1013.63
2022-10-19T11:38:21.133Z,1013.53
2022-10-19T11:39:18.616Z,1013.52
2022-10-19T11:40:21.263Z,1013.52
2022-10-19T11:41:18.796Z,1013.54
2022-10-19T11:42:17.562Z,1013.49
2022-10-19T11:43:17.554Z,1013.48
2022-10-19T11:44:17.551Z,1013.48
2022-10-19T11:45:17.522Z,1013.44
2022-10-19T11:46:17.511Z,1013.37
2022-10-19T11:47:17.493Z,1013.38
2022-10-19T11:48:17.500Z,1013.34
2022-10-19T11:49:17.472Z,1013.29
2022-10-19T11:50:17.447Z,1013.29
2022-10-19T11:51:21.664Z,1013.31
2022-10-19T11:52:17.435Z,1013.21
2022-10-19T11:53:17.423Z,1013.21
2022-10-19T11:54:17.418Z,1013.16
2022-10-19T11:55:17.393Z,1013.15
2022-10-19T11:56:17.394Z,1013.08
2022-10-19T11:57:17.361Z,1013.03
2022-10-19T11:58:17.364Z,1013.05
2022-10-19T11:59:17.366Z,1012.95
2022-10-19T12:00:37.684Z,1012.96
2022-10-19T12:01:18.301Z,1012.96
2022-10-19T12:02:17.388Z,1012.99
2022-10-19T12:03:17.291Z,1012.96
2022-10-19T12:04:17.273Z,1012.98
2022-10-19T12:05:17.254Z,1012.98
2022-10-19T12:06:17.273Z,1012.95
2022-10-19T12:07:17.231Z,1012.93
2022-10-19T12:08:17.242Z,1012.93
2022-10-19T12:09:17.354Z,1012.87
2022-10-19T12:10:17.200Z,1012.82
2022-10-19T12:11:17.178Z,1012.84